Погода Даго-де-Никарагуана неделю

Рива, Никарагуа

04 - 10 марта
  • 04марта
    Сегодня
    +24°
    +31°
    Ясно и безоблачно
    ВремяПогодаТемператураВлажностьДавлениеВетер, м/сВероятность осадков
    00:00Ясно и безоблачно+25°C86 %755 мм6.6 м/с2 %
    03:00Практически безоблачно+25°C87 %753 мм6.1 м/с2 %
    06:00Практически безоблачно+24°C90 %755 мм5.4 м/с3 %
    09:00Практически безоблачно+26°C82 %756 мм5.8 м/с4 %
    12:00Ясно и безоблачно+29°C70 %754 мм3.8 м/с5 %
    15:00Ясно и безоблачно+31°C60 %751 мм3.6 м/с2 %
    18:00Ясно и безоблачно+30°C62 %751 мм4.3 м/с2 %
    21:00Ясно и безоблачно+27°C72 %753 мм6.8 м/с2 %
  • 05марта
    Вторник
    +23°
    +32°
    Ясно и безоблачно
    ВремяПогодаТемператураВлажностьДавлениеВетер, м/сВероятность осадков
    00:00Ясно и безоблачно+25°C83 %753 мм6.3 м/с2 %
    03:00Практически безоблачно+25°C87 %753 мм5.4 м/с3 %
    06:00Практически безоблачно+24°C89 %754 мм5.0 м/с10 %
    09:00Практически безоблачно+26°C82 %754 мм5.6 м/с12 %
    12:00Ясно и безоблачно+29°C69 %753 мм3.4 м/с9 %
    15:00Ясно и безоблачно+31°C56 %751 мм2.5 м/с2 %
    18:00Ясно и безоблачно+29°C64 %751 мм2.3 м/с2 %
    21:00Ясно и безоблачно+27°C73 %753 мм6.3 м/с2 %
  • 06марта
    Среда
    +24°
    +31°
    Ясно и безоблачно
    ВремяПогодаТемператураВлажностьДавлениеВетер, м/сВероятность осадков
    00:00Ясно и безоблачно+25°C82 %753 мм5.9 м/с2 %
    03:00Практически безоблачно+25°C85 %752 мм5.2 м/с13 %
    06:00Небольшая облачность+24°C89 %753 мм4.9 м/с26 %
    09:00Практически безоблачно+27°C80 %754 мм5.6 м/с27 %
    12:00Ясно и безоблачно+29°C69 %753 мм2.8 м/с18 %
    15:00Ясно и безоблачно+31°C55 %750 мм1.3 м/с2 %
    18:00Ясно и безоблачно+29°C60 %750 мм2.2 м/с2 %
    21:00Небольшая облачность+27°C77 %752 мм6.3 м/с2 %
  • 07марта
    Четверг
    +24°
    +32°
    Ясно и безоблачно
    ВремяПогодаТемператураВлажностьДавлениеВетер, м/сВероятность осадков
    00:00Облачно с прояснениями+25°C87 %753 мм5.8 м/с2 %
    03:00Практически безоблачно+25°C89 %752 мм4.5 м/с10 %
    06:00Облачно с прояснениями+24°C90 %754 мм4.4 м/с32 %
    09:00Ясно и безоблачно+27°C79 %755 мм4.9 м/с29 %
    12:00Ясно и безоблачно+29°C65 %754 мм2.9 м/с14 %
    15:00Ясно и безоблачно+32°C51 %751 мм2.5 м/с2 %
    18:00Ясно и безоблачно+29°C56 %751 мм1.7 м/с2 %
    21:00Ясно и безоблачно+28°C70 %753 мм6.3 м/с2 %
  • 08марта
    Пятница
    +24°
    +32°
    Ясно и безоблачно
    ВремяПогодаТемператураВлажностьДавлениеВетер, м/сВероятность осадков
    00:00Ясно и безоблачно+26°C82 %753 мм5.7 м/с2 %
    03:00Практически безоблачно+25°C86 %753 мм5.1 м/с8 %
    06:00Практически безоблачно+24°C88 %754 мм4.8 м/с32 %
    09:00Ясно и безоблачно+27°C78 %756 мм4.9 м/с30 %
    12:00Ясно и безоблачно+29°C57 %754 мм2.9 м/с12 %
    15:00Ясно и безоблачно+32°C50 %751 мм2.4 м/с2 %
    18:00Ясно и безоблачно+30°C54 %751 мм1.9 м/с2 %
    21:00Ясно и безоблачно+27°C67 %753 мм6.1 м/с2 %
Мы используем cookies
Соглашаюсь